Hartenholm Airport


Codes: EDHM/
Name: Hartenholm Airport
City: Hasenmoor
Country: Germany
Elevation: 108 ft.

Photos at Hartenholm Airport


   Photos courtesy of SpottingLog. You can add your own sightings and photos by signing up for a free trial today.



No photos found.

Weather at Hartenholm Airport


Time (UTC)DescriptionTempratureWindCloud coverageVisibilityPressureHumidity
25-Jun-2024 12:00Clear Sky26°C7 mph, E1%10000m1018hPa38%
25-Jun-2024 15:00Clear Sky25°C9 mph, E3%10000m1018hPa46%
25-Jun-2024 18:00Clear Sky22°C9 mph, E6%10000m1017hPa67%
25-Jun-2024 21:00Clear Sky16°C7 mph, NE0%10000m1017hPa89%
26-Jun-2024 00:00Clear Sky16°C7 mph, E0%10000m1017hPa95%
26-Jun-2024 03:00Clear Sky15°C7 mph, E0%10000m1016hPa93%
26-Jun-2024 06:00Clear Sky19°C7 mph, E0%10000m1015hPa78%
26-Jun-2024 09:00Clear Sky24°C9 mph, E4%10000m1015hPa63%
26-Jun-2024 12:00Clear Sky25°C9 mph, E4%10000m1014hPa58%
26-Jun-2024 15:00Few Clouds26°C9 mph, E17%10000m1013hPa62%
26-Jun-2024 18:00Clear Sky22°C9 mph, NE9%10000m1012hPa79%
26-Jun-2024 21:00Scattered Clouds19°C7 mph, NE33%10000m1012hPa90%
27-Jun-2024 00:00Broken Clouds21°C9 mph, E63%10000m1011hPa70%
27-Jun-2024 03:00Overcast Clouds20°C9 mph, E97%10000m1010hPa72%
27-Jun-2024 06:00Overcast Clouds21°C9 mph, E94%10000m1009hPa78%
27-Jun-2024 09:00Overcast Clouds26°C11 mph, SE99%10000m1009hPa67%
27-Jun-2024 12:00Broken Clouds29°C9 mph, SE73%10000m1007hPa54%
27-Jun-2024 15:00Light Rain30°C9 mph, SE51%10000m1006hPa54%
27-Jun-2024 18:00Moderate Rain21°C9 mph, N73%10000m1007hPa94%
27-Jun-2024 21:00Moderate Rain20°C4 mph, SW95%10000m1007hPa98%
28-Jun-2024 00:00Light Rain18°C4 mph, W98%10000m1008hPa94%
28-Jun-2024 03:00Overcast Clouds16°C7 mph, SW100%10000m1008hPa94%
28-Jun-2024 06:00Overcast Clouds19°C13 mph, SW98%10000m1009hPa91%
28-Jun-2024 09:00Light Rain20°C16 mph, W72%10000m1011hPa66%
28-Jun-2024 12:00Scattered Clouds21°C16 mph, W41%10000m1013hPa61%
28-Jun-2024 15:00Light Rain19°C13 mph, W64%10000m1015hPa70%
28-Jun-2024 18:00Broken Clouds17°C9 mph, W76%10000m1017hPa78%
28-Jun-2024 21:00Overcast Clouds13°C7 mph, SW85%10000m1018hPa91%
29-Jun-2024 00:00Broken Clouds12°C4 mph, SW67%10000m1018hPa94%
29-Jun-2024 03:00Broken Clouds11°C4 mph, SW69%10000m1018hPa94%
29-Jun-2024 06:00Broken Clouds15°C2 mph, SW63%10000m1018hPa78%
29-Jun-2024 09:00Overcast Clouds19°C4 mph, SE100%10000m1016hPa69%
29-Jun-2024 12:00Overcast Clouds23°C4 mph, SE93%10000m1014hPa55%
29-Jun-2024 15:00Overcast Clouds25°C9 mph, E95%10000m1010hPa55%
29-Jun-2024 18:00Light Rain18°C11 mph, E98%10000m1009hPa83%
29-Jun-2024 21:00Moderate Rain17°C7 mph, NE100%10000m1008hPa98%
30-Jun-2024 00:00Light Rain17°C9 mph, NE100%10000m1006hPa98%
30-Jun-2024 03:00Light Rain16°C4 mph, NW100%10000m1005hPa99%
30-Jun-2024 06:00Light Rain16°C7 mph, NW100%1381m1005hPa99%
30-Jun-2024 09:00Light Rain17°C7 mph, NW100%10000m1007hPa95%